• Join FlightAware (Why Join?)
  • Login
  • US Flag 
04:59PM EDT


 

Airport Tracker/Info


-or-


 

Live Flight TrackerFlight Track Log ✈ N662US ✈ 05-Jun-2013 ✈ KSEA - RJAA / NRT

Flight Track Log - Related Links

Times and Time Zones

All times are in EDT time to prevent confusion due to time zone crossing. See the N662US flight status page for this flight to view local times or setup timezone preferences in your user account.

Time Position Orientation Groundspeed Altitude Reporting Facility
EDT Latitude Longitude Course Direction KTS MPH feet Rate Location/Type
06:25PM 47.4031 -122.6063 306° West  Level FlightAware Approximate
06:26PM 47.4969 -122.7235 323° Northwest  Level FlightAware Approximate
06:26PM 47.6240 -122.5440 317° Northwest 294 338 7,700  Level FlightAware
06:27PM 47.5913 -122.8411 317° Northwest  Level FlightAware Approximate
06:27PM 47.6280 -122.6010 276° West 299 344 8,800  Level FlightAware
06:27PM 47.6310 -122.6540 275° West 300 345 9,900 1,920 Climbing FlightAware
06:28PM 47.6350 -122.7400 274° West 324 373 10,900 1,320 Climbing FlightAware
06:29PM 47.6410 -122.8450 275° West 361 415 11,800 1,080 Climbing FlightAware
06:29PM 47.6580 -122.9500 284° West 394 453 12,500 1,680 Climbing FlightAware
06:30PM 47.6980 -123.0400 303° West 406 467 14,100 2,400 Climbing FlightAware
06:31PM 47.7460 -123.1540 302° West 413 475 16,000 2,280 Climbing FlightAware
06:31PM 47.7930 -123.2640 302° West 424 488 17,600 2,040 Climbing FlightAware
06:32PM 47.8480 -123.3970 302° West 433 498 19,400 1,980 Climbing FlightAware
06:33PM 47.8900 -123.4990 302° West 439 505 20,700 1,800 Climbing FlightAware
06:34PM 47.9320 -123.6130 299° West 445 512 22,000 1,740 Climbing FlightAware
06:34PM 47.9740 -123.7270 299° West 450 518 23,200 1,680 Climbing FlightAware
06:35PM 48.0140 -123.8360 299° West 455 524 24,300 1,500 Climbing FlightAware
06:36PM 48.0590 -123.9610 298° West 461 531 25,400 1,380 Climbing FlightAware
06:37PM 48.1030 -124.0820 299° West 467 537 26,400 1,320 Climbing FlightAware
06:37PM 48.1470 -124.2010 299° West 472 543 27,300 1,320 Climbing FlightAware
06:38PM 48.1870 -124.3100 299° West 472 543 28,200 1,560 Climbing FlightAware
06:39PM 48.2300 -124.4300 298° West 468 539 29,400 1,620 Climbing FlightAware
06:39PM 48.2750 -124.5550 298° West 463 533 30,500 1,440 Climbing FlightAware
06:40PM 48.3130 -124.6730 296° West 459 528 31,500 1,020 Climbing FlightAware
06:41PM 48.3430 -124.8070 289° West 456 525 32,000 300 Climbing FlightAware
06:41PM 48.3660 -124.9250 286° West 456 525 32,000  Level FlightAware
06:42PM 48.3960 -125.0640 288° West 456 525 32,000  Level FlightAware
06:43PM 48.4220 -125.1840 288° West 457 526 32,000  Level FlightAware
06:44PM 48.4520 -125.3190 289° West 457 526 32,000  Level FlightAware
06:44PM 48.4740 -125.4180 289° West 456 525 32,000  Level FlightAware
06:45PM 48.5050 -125.5630 288° West 454 522 32,000  Level FlightAware
06:46PM 48.5330 -125.6960 288° West 454 522 32,000  Level FlightAware
06:46PM 48.5580 -125.8130 288° West 454 522 32,000  Level FlightAware
06:47PM 48.5840 -125.9340 288° West 455 524 32,000  Level FlightAware
06:48PM 48.6140 -126.0760 288° West 454 522 32,000  Level FlightAware
06:48PM 48.6350 -126.1790 287° West 456 525 32,000  Level FlightAware
06:49PM 48.6740 -126.3670 288° West 454 522 32,000  Level FlightAware
06:50PM 48.6990 -126.4920 287° West 455 524 32,000  Level FlightAware
06:51PM 48.7250 -126.6230 287° West 454 522 32,000  Level FlightAware
06:52PM 48.7570 -126.7770 288° West 455 524 32,000  Level FlightAware
06:52PM 48.7860 -126.9230 287° West 454 522 32,000  Level FlightAware
06:53PM 48.8050 -127.0200 287° West 454 522 32,000  Level FlightAware
06:54PM 48.8360 -127.1760 287° West 454 522 32,000  Level FlightAware
06:55PM 48.8690 -127.3430 287° West 454 522 32,000  Level FlightAware
06:55PM 48.8950 -127.4770 286° West 453 521 32,000  Level FlightAware
06:56PM 48.9160 -127.5890 286° West 453 521 32,000  Level FlightAware
06:57PM 48.9430 -127.7240 287° West 454 522 32,000  Level FlightAware
06:58PM 48.9780 -127.9110 286° West 453 521 32,000  Level FlightAware
06:58PM 48.9990 -128.0120 288° West 453 521 32,000  Level FlightAware
06:59PM 49.0200 -128.1160 287° West 453 521 32,000  Level FlightAware
07:00PM 49.0400 -128.2200 286° West 453 521 32,000  Level FlightAware
07:01PM 49.0730 -128.3810 287° West 453 521 32,000  Level FlightAware
07:01PM 49.0900 -128.4690 286° West 453 521 32,000  Level FlightAware
07:02PM 49.1170 -128.6020 287° West 453 521 32,000  Level FlightAware
07:03PM 49.1360 -128.6960 287° West 453 521 32,000  Level FlightAware
07:04PM 49.1610 -128.8210 287° West 453 521 32,000  Level FlightAware
07:04PM 49.1790 -128.9150 286° West 453 521 32,000  Level FlightAware
07:05PM 49.2000 -129.0190 287° West 453 521 32,000  Level FlightAware
07:06PM 49.2250 -129.1440 287° West 453 521 32,000  Level FlightAware
07:07PM 49.2500 -129.2690 287° West 453 521 32,000  Level FlightAware
07:07PM 49.2680 -129.3580 287° West 453 521 32,000  Level FlightAware
07:08PM 49.2880 -129.4570 287° West 453 521 32,000  Level FlightAware
07:09PM 49.3167 -129.9000 287° West 450 518 32,000  Level Vancouver Center
07:10PM 49.3500 -130.0833 286° West 450 518 32,000  Level Vancouver Center
07:11PM 49.4333 -130.2500 308° West 450 518 32,000  Level Vancouver Center
07:12PM 49.5000 -130.3833 308° West 460 529 32,000  Level Vancouver Center
07:13PM 49.6000 -130.5500 313° West 460 529 32,000  Level Vancouver Center
07:14PM 49.6833 -130.7000 311° West 460 529 32,000  Level Vancouver Center
07:15PM 49.7500 -130.8667 302° West 460 529 32,000  Level Vancouver Center
07:16PM 49.8500 -131.0000 319° Northwest 460 529 32,000  Level Vancouver Center
07:17PM 49.9167 -131.1500 305° West 460 529 32,000  Level Vancouver Center
07:18PM 50.0167 -131.3167 313° West 460 529 32,000  Level Vancouver Center
07:20PM 50.1833 -131.6333 309° West 460 529 32,000  Level Vancouver Center
07:21PM 50.2500 -131.7667 308° West 460 529 32,000  Level Vancouver Center
07:22PM 50.3333 -131.9167 311° West 460 529 32,000  Level Vancouver Center
07:23PM 50.4167 -132.0833 308° West 460 529 32,000  Level Vancouver Center
07:24PM 50.4833 -132.2000 312° West 450 518 32,000  Level Vancouver Center
07:25PM 50.5833 -132.3833 311° West 470 541 32,000  Level Vancouver Center
07:25PM 50.6167 -132.5000 294° West 350 403 32,000  Level Vancouver Center
07:26PM 50.7000 -132.6500 311° West 470 541 32,000  Level Vancouver Center
07:27PM 50.8000 -132.8167 314° West 460 529 32,000  Level Vancouver Center
07:28PM 50.8667 -132.9667 305° West 460 529 32,000  Level Vancouver Center
07:29PM 50.9500 -133.1167 311° West 460 529 32,000  Level Vancouver Center
07:30PM 51.0333 -133.3000 306° West 460 529 32,000  Level Vancouver Center
07:31PM 51.1167 -133.4500 312° West 460 529 32,000  Level Vancouver Center
07:32PM 51.1833 -133.6167 303° West 450 518 32,000  Level Vancouver Center
07:33PM 51.2667 -133.7667 312° West 460 529 32,000  Level Vancouver Center
07:34PM 51.3500 -133.9167 312° West 440 506 32,000  Level Vancouver Center
07:35PM 51.4167 -134.0667 306° West 450 518 32,000  Level Vancouver Center
07:36PM 51.4833 -134.2167 306° West 440 506 32,000  Level Vancouver Center
07:37PM 51.5667 -134.4000 306° West 450 518 32,000  Level Vancouver Center
07:38PM 51.6333 -134.5500 306° West 450 518 32,000  Level Vancouver Center
07:39PM 51.7333 -134.7167 314° West 450 518 32,000  Level Vancouver Center
07:40PM 51.8000 -134.8667 306° West 450 518 32,000  Level Vancouver Center
07:41PM 51.8667 -135.0500 301° West 450 518 32,000  Level Vancouver Center
07:42PM 51.9500 -135.2000 312° West 450 518 32,000  Level Vancouver Center
07:43PM 52.0167 -135.3667 303° West 450 518 32,000  Level Vancouver Center
07:44PM 52.0833 -135.5500 301° West 450 518 32,000  Level Vancouver Center
07:45PM 52.1667 -135.7000 312° West 450 518 32,000  Level Vancouver Center
07:46PM 52.2333 -135.8500 306° West 450 518 32,000  Level Vancouver Center
07:47PM 52.3000 -136.0167 303° West 450 518 32,000 600 Level Vancouver Center
07:48PM 52.3833 -136.2000 307° West 450 518 33,200 960 Climbing Vancouver Center
07:49PM 52.4500 -136.3667 303° West 450 518 34,000 360 Climbing Vancouver Center
07:50PM 52.5167 -136.5167 306° West 450 518 34,000  Level Vancouver Center
07:51PM 52.6000 -136.6833 310° West 440 506 34,000  Level Vancouver Center
07:52PM 52.5833 -136.5333 306° West 448 516 34,000  Level Oakland Oceanic (ODAPS)
07:52PM 52.6667 -136.8333 306° West 440 506 34,000  Level Vancouver Center
07:53PM 52.7333 -137.0000 303° West 430 495 34,000  Level Vancouver Center
07:54PM 52.8000 -137.1667 304° West 440 506 34,000  Level Vancouver Center
07:55PM 52.8833 -137.3500 307° West 450 518 34,000  Level Vancouver Center
07:56PM 52.9500 -137.5167 304° West 450 518 34,000  Level Vancouver Center
07:57PM 53.0167 -137.6667 306° West 440 506 34,000  Level Vancouver Center
07:58PM 53.1000 -137.8333 310° West 450 518 34,000  Level Vancouver Center
07:59PM 53.1667 -138.0000 304° West 450 518 34,000  Level Vancouver Center
08:00PM 53.2333 -138.1667 304° West 450 518 34,000  Level Vancouver Center
08:01PM 53.3000 -138.3333 304° West 450 518 34,000  Level Vancouver Center
08:02PM 53.3833 -138.5000 310° West 460 529 34,000  Level Vancouver Center
08:03PM 53.4333 -138.6667 297° West 460 529 34,000  Level Vancouver Center
08:04PM 53.5167 -138.8667 305° West 450 518 34,000  Level Vancouver Center
08:05PM 53.5833 -139.0333 304° West 460 529 34,000  Level Vancouver Center
08:06PM 53.6500 -139.2333 299° West 450 518 34,000  Level Vancouver Center
08:07PM 53.7167 -139.4000 304° West 480 552 34,000  Level Vancouver Center
08:08PM 53.8000 -139.6000 305° West 470 541 34,000  Level Vancouver Center
08:10PM 53.8976 -139.7944 310° West  Level FlightAware Approximate
08:13PM 54.0500 -140.1167 302° West 448 516 34,000  Level Oakland Oceanic (ODAPS)
08:14PM 54.0000 -140.0000 302° West 463 533 34,000  Level Oakland Oceanic (ODAPS)
08:17PM 54.3696 -141.0352 302° West  Level FlightAware Approximate
08:18PM 54.4332 -141.2177 301° West  Level FlightAware Approximate
08:18PM 54.4500 -141.2500 301° West 457 526 34,000  Level Oakland Oceanic (ODAPS)
08:19PM 54.5738 -141.5982 301° West 448 516 34,000  Level FlightAware Transoceanic
08:20PM 54.5984 -141.6873 301° West 463 533 34,000  Level FlightAware Transoceanic
08:21PM 54.6634 -141.8779 300° West 463 533 34,000  Level FlightAware Transoceanic
08:22PM 54.7281 -142.0690 300° West 463 533 34,000  Level FlightAware Transoceanic
08:23PM 54.7925 -142.2607 300° West 463 533 34,000  Level FlightAware Transoceanic
08:24PM 54.8333 -142.3757 300° West 457 526 34,000  Level FlightAware Transoceanic
08:25PM 54.8962 -142.5654 300° West 457 526 34,000  Level FlightAware Transoceanic
08:26PM 54.9588 -142.7557 300° West 457 526 34,000  Level FlightAware Transoceanic
08:27PM 55.0210 -142.9465 300° West 457 526 34,000  Level FlightAware Transoceanic
08:28PM 55.0830 -143.1380 299° West 457 526 34,000  Level FlightAware Transoceanic
08:29PM 55.1447 -143.3301 299° West 457 526 34,000  Level FlightAware Transoceanic
08:30PM 55.2060 -143.5227 299° West 457 526 34,000  Level FlightAware Transoceanic
08:31PM 55.2671 -143.7159 299° West 457 526 34,000  Level FlightAware Transoceanic
08:32PM 55.3279 -143.9098 299° West 457 526 34,000  Level FlightAware Transoceanic
08:33PM 55.3883 -144.1042 299° West 457 526 34,000  Level FlightAware Transoceanic
08:34PM 55.4484 -144.2992 298° West 457 526 34,000  Level FlightAware Transoceanic
08:35PM 55.5083 -144.4949 298° West 457 526 34,000  Level FlightAware Transoceanic
08:36PM 55.5678 -144.6911 298° West 457 526 34,000  Level FlightAware Transoceanic
08:37PM 55.6270 -144.8879 298° West 457 526 34,000  Level FlightAware Transoceanic
08:38PM 55.6859 -145.0853 298° West 457 526 34,000  Level FlightAware Transoceanic
08:39PM 55.7444 -145.2833 298° West 457 526 34,000  Level FlightAware Transoceanic
08:40PM 55.8027 -145.4819 297° West 457 526 34,000  Level FlightAware Transoceanic
08:41PM 55.8606 -145.6810 297° West 457 526 34,000  Level FlightAware Transoceanic
08:42PM 55.9182 -145.8808 297° West 457 526 34,000  Level FlightAware Transoceanic
08:43PM 55.9755 -146.0812 297° West 457 526 34,000  Level FlightAware Transoceanic
08:43PM 56.0667 -146.4167 296° West 500 575 34,000  Level Anchorage Center
08:44PM 56.0325 -146.2821 297° West 457 526 34,000  Level FlightAware Transoceanic
08:44PM 56.1167 -146.6333 293° West 480 552 34,000  Level Anchorage Center
08:45PM 56.0891 -146.4837 297° West 457 526 34,000  Level FlightAware Transoceanic
08:45PM 56.1833 -146.8500 299° West 470 541 34,000  Level Anchorage Center
08:46PM 56.1454 -146.6858 296° West 457 526 34,000  Level FlightAware Transoceanic
08:46PM 56.2333 -147.0500 294° West 470 541 34,000  Level Anchorage Center
08:47PM 56.2013 -146.8885 296° West 457 526 34,000  Level FlightAware Transoceanic
08:47PM 56.3000 -147.2667 299° West 470 541 34,000  Level Anchorage Center
08:48PM 56.2570 -147.0919 296° West 457 526 34,000  Level FlightAware Transoceanic
08:48PM 56.3500 -147.4833 293° West 460 529 34,000  Level Anchorage Center
08:49PM 56.4167 -147.6833 301° West 460 529 34,000  Level Anchorage Center
08:50PM 56.4667 -147.9000 293° West 460 529 34,000  Level Anchorage Center
08:51PM 56.5167 -148.1167 293° West 460 529 34,000  Level Anchorage Center
08:52PM 56.5833 -148.3167 301° West 460 529 34,000  Level Anchorage Center
08:53PM 56.6333 -148.5333 293° West 460 529 34,000  Level Anchorage Center
08:54PM 56.6833 -148.7500 293° West 460 529 34,000  Level Anchorage Center
08:55PM 56.7333 -148.9667 293° West 460 529 34,000  Level Anchorage Center
08:56PM 56.8000 -149.1833 299° West 460 529 34,000  Level Anchorage Center
08:57PM 56.8500 -149.3833 295° West 450 518 34,000  Level Anchorage Center
08:58PM 56.9000 -149.6000 293° West 460 529 34,000  Level Anchorage Center
08:59PM 56.9500 -149.8167 293° West 460 529 34,000  Level Anchorage Center
09:00PM 57.0000 -150.0333 293° West 450 518 34,000  Level Anchorage Center
09:01PM 57.0833 -150.2333 308° West 450 518 34,000  Level Anchorage Center
09:02PM 57.1500 -150.4333 302° West 460 529 34,000  Level Anchorage Center
09:03PM 57.2167 -150.6333 302° West 460 529 34,000  Level Anchorage Center
09:04PM 57.2833 -150.8333 302° West 460 529 34,000  Level Anchorage Center
09:05PM 57.3500 -151.0333 302° West 460 529 34,000  Level Anchorage Center
09:06PM 57.4167 -151.2333 302° West 450 518 34,000  Level Anchorage Center
09:07PM 57.4833 -151.4333 302° West 450 518 34,000  Level Anchorage Center
09:08PM 57.5500 -151.6500 300° West 460 529 34,000  Level Anchorage Center
09:09PM 57.6167 -151.8500 302° West 470 541 34,000  Level Anchorage Center
09:10PM 57.6833 -152.0500 302° West 450 518 34,000  Level Anchorage Center
09:11PM 57.7500 -152.2500 302° West 460 529 34,000  Level Anchorage Center
09:12PM 57.8000 -152.4667 293° West 450 518 34,000  Level Anchorage Center
09:13PM 57.8500 -152.6833 294° West 440 506 34,000  Level Anchorage Center
09:14PM 57.9000 -152.9000 294° West 450 518 34,000  Level Anchorage Center
09:15PM 57.9500 -153.1167 294° West 450 518 34,000  Level Anchorage Center
09:16PM 58.0000 -153.3167 295° West 440 506 34,000  Level Anchorage Center
09:17PM 58.0667 -153.5833 295° West 450 518 34,000  Level Anchorage Center
09:18PM 58.1000 -153.8000 286° West 440 506 34,000  Level Anchorage Center
09:19PM 58.1500 -154.0167 294° West 450 518 34,000  Level Anchorage Center
09:20PM 58.2000 -154.2333 294° West 440 506 34,000  Level Anchorage Center
09:21PM 58.2500 -154.4500 294° West 450 518 34,000  Level Anchorage Center
09:22PM 58.3000 -154.6667 294° West 450 518 34,000  Level Anchorage Center
09:23PM 58.3500 -154.9000 292° West 450 518 34,000  Level Anchorage Center
09:24PM 58.3833 -155.1167 286° West 450 518 34,000  Level Anchorage Center
09:25PM 58.4333 -155.3500 292° West 450 518 34,000  Level Anchorage Center
09:26PM 58.4833 -155.5667 294° West 450 518 34,000  Level Anchorage Center
09:27PM 58.5333 -155.8000 292° West 450 518 34,000  Level Anchorage Center
09:28PM 58.5833 -156.0333 292° West 450 518 34,000  Level Anchorage Center
09:29PM 58.6167 -156.2667 285° West 460 529 34,000  Level Anchorage Center
09:30PM 58.6667 -156.5000 292° West 460 529 34,000  Level Anchorage Center
09:31PM 58.7167 -156.7333 293° West 470 541 34,000  Level Anchorage Center
09:32PM 58.7500 -156.9833 285° West 470 541 34,000  Level Anchorage Center
09:33PM 58.7833 -157.2167 286° West 460 529 34,000  Level Anchorage Center
09:34PM 58.8167 -157.5000 283° West 470 541 34,000  Level Anchorage Center
09:35PM 58.8500 -157.7500 285° West 480 552 34,000  Level Anchorage Center
09:36PM 58.8833 -158.0000 285° West 470 541 34,000  Level Anchorage Center
09:37PM 58.9000 -158.2500 277° West 470 541 34,000  Level Anchorage Center
09:38PM 58.9333 -158.5000 285° West 480 552 34,000  Level Anchorage Center
09:39PM 58.9667 -158.7667 284° West 480 552 34,000  Level Anchorage Center
09:40PM 59.0000 -159.0167 285° West 470 541 34,000  Level Anchorage Center
09:41PM 59.0167 -159.2833 277° West 480 552 34,000  Level Anchorage Center
09:42PM 59.0500 -159.5333 285° West 490 564 34,000  Level Anchorage Center
09:43PM 59.0833 -159.8000 284° West 490 564 34,000  Level Anchorage Center
09:44PM 59.1000 -160.0500 278° West 490 564 34,000  Level Anchorage Center
09:45PM 59.1333 -160.3167 284° West 480 552 34,000  Level Anchorage Center
09:46PM 59.1667 -160.5833 284° West 490 564 34,000  Level Anchorage Center
09:47PM 59.1833 -160.8333 278° West 480 552 34,000  Level Anchorage Center
09:48PM 59.2000 -161.0833 278° West 490 564 34,000  Level Anchorage Center
09:49PM 59.2333 -161.3667 283° West 490 564 34,000  Level Anchorage Center
09:50PM 59.2667 -161.6167 285° West 490 564 34,000  Level Anchorage Center
09:51PM 59.2833 -161.8833 277° West 490 564 34,000  Level Anchorage Center
09:52PM 59.3000 -162.1500 277° West 480 552 34,000  Level Anchorage Center
09:53PM 59.3333 -162.4167 284° West 490 564 34,000  Level Anchorage Center
09:54PM 59.3500 -162.6833 277° West 500 575 34,000  Level Anchorage Center
09:55PM 59.3667 -162.9500 277° West 490 564 34,000  Level Anchorage Center
09:56PM 59.3667 -163.2167 270° West 490 564 34,000  Level Anchorage Center
09:57PM 59.3500 -163.5500 265° West 490 564 34,000  Level Anchorage Center
09:58PM 59.3333 -163.8167 263° West 490 564 34,000  Level Anchorage Center
09:59PM 59.3333 -164.0833 270° West 490 564 34,000  Level Anchorage Center
10:00PM 59.3167 -164.3500 263° West 490 564 34,000  Level Anchorage Center
10:01PM 59.3000 -164.6167 263° West 500 575 34,000  Level Anchorage Center
10:02PM 59.2833 -164.8833 263° West 500 575 34,000  Level Anchorage Center
10:03PM 59.2667 -165.1667 264° West 500 575 34,000  Level Anchorage Center
10:04PM 59.2500 -165.4333 263° West 500 575 34,000  Level Anchorage Center
10:05PM 59.2333 -165.7000 263° West 500 575 34,000  Level Anchorage Center
10:06PM 59.2167 -165.9833 264° West 500 575 34,000  Level Anchorage Center
10:07PM 59.2000 -166.2500 263° West 500 575 34,000  Level Anchorage Center
10:08PM 59.1833 -166.5167 263° West 490 564 34,000  Level Anchorage Center
10:09PM 59.1667 -166.8500 265° West 500 575 34,000  Level Anchorage Center
10:10PM 59.1500 -167.0667 262° West 490 564 34,000  Level Anchorage Center
10:11PM 59.1167 -167.3333 256° West 490 564 34,000  Level Anchorage Center
10:12PM 59.1000 -167.6000 263° West 500 575 34,000  Level Anchorage Center
10:13PM 59.0833 -167.8667 263° West 500 575 34,000  Level Anchorage Center
10:14PM 59.0500 -168.1500 257° West 500 575 34,000  Level Anchorage Center
10:15PM 59.0333 -168.4167 263° West 500 575 34,000  Level Anchorage Center
10:16PM 59.0167 -168.6833 263° West 500 575 34,000  Level Anchorage Center
10:17PM 58.9833 -168.9667 257° West 500 575 34,000  Level Anchorage Center
10:18PM 58.9667 -169.2333 263° West 500 575 34,000  Level Anchorage Center
10:19PM 58.9500 -169.5000 263° West 510 587 34,000  Level Anchorage Center
10:20PM 58.9167 -169.7667 256° West 510 587 34,000  Level Anchorage Center
10:21PM 58.8833 -170.0333 257° West 510 587 34,000  Level Anchorage Center
10:22PM 58.8667 -170.3000 263° West 500 575 34,000  Level Anchorage Center
10:23PM 58.8333 -170.5833 257° West 500 575 34,000  Level Anchorage Center
10:24PM 58.8000 -170.8333 256° West 500 575 34,000  Level Anchorage Center
10:25PM 58.7833 -171.1167 264° West 510 587 34,000  Level Anchorage Center
10:26PM 58.7500 -171.3667 256° West 490 564 34,000 240 Level Anchorage Center
10:27PM 58.7000 -171.6167 249° West 490 564 34,500 480 Climbing Anchorage Center
10:28PM 58.6500 -171.8667 249° West 500 575 35,000 240 Climbing Anchorage Center
10:29PM 58.6000 -172.1167 249° West 490 564 35,000  Level Anchorage Center
10:30PM 58.5333 -172.3667 243° Southwest 500 575 35,000  Level Anchorage Center
10:31PM 58.4833 -172.6167 249° West 500 575 35,000  Level Anchorage Center
10:32PM 58.4333 -172.8500 248° West 500 575 35,000  Level Anchorage Center
10:33PM 58.3833 -173.1000 249° West 500 575 35,000  Level Anchorage Center
10:34PM 58.3333 -173.3500 249° West 510 587 35,000  Level Anchorage Center
10:35PM 58.2667 -173.6000 243° Southwest 500 575 35,000  Level Anchorage Center
10:36PM 58.2167 -173.8333 248° West 500 575 35,000  Level Anchorage Center
10:37PM 58.1667 -174.0833 249° West 500 575 35,000  Level Anchorage Center
10:38PM 58.1167 -174.3333 249° West 500 575 35,000  Level Anchorage Center
10:39PM 58.0500 -174.5667 242° Southwest 490 564 35,000  Level Anchorage Center
10:41PM 57.9973 -174.8055 247° West  Level FlightAware Approximate
10:41PM 57.9500 -175.0500 247° West 490 564 35,000  Level Anchorage Center
10:42PM 57.9000 -175.2833 248° West 480 552 35,000  Level Anchorage Center
10:43PM 57.8333 -175.5167 242° Southwest 490 564 35,000  Level Anchorage Center
10:44PM 57.7833 -175.7500 248° West 490 564 35,000  Level Anchorage Center
10:45PM 57.7333 -175.9833 248° West 480 552 35,000  Level Anchorage Center
10:48PM 57.6779 -176.2127 246° West  Level FlightAware Approximate
10:49PM 57.5333 -176.8000 245° Southwest 495 570 35,000  Level Anchorage Center
10:55PM 57.1824 -178.1577 244° Southwest 495 570 35,000  Level FlightAware Transoceanic
10:56PM 57.1225 -178.3815 244° Southwest 495 570 35,000  Level FlightAware Transoceanic
10:57PM 57.0622 -178.6045 243° Southwest 495 570 35,000  Level FlightAware Transoceanic
10:58PM 57.0015 -178.8268 243° Southwest 495 570 35,000  Level FlightAware Transoceanic
10:59PM 56.9404 -179.0484 243° Southwest 495 570 35,000  Level FlightAware Transoceanic
11:00PM 56.8790 -179.2692 243° Southwest 495 570 35,000  Level FlightAware Transoceanic
11:01PM 56.8171 -179.4893 243° Southwest 495 570 35,000  Level FlightAware Transoceanic
11:02PM 56.7549 -179.7088 243° Southwest 495 570 35,000  Level FlightAware Transoceanic
11:03PM 56.6922 -179.9274 242° Southwest 495 570 35,000  Level FlightAware Transoceanic
11:04PM 56.6292 179.8546 242° Southwest 495 570 35,000  Level FlightAware Transoceanic
11:05PM 56.5658 179.6374 242° Southwest 495 570 35,000  Level FlightAware Transoceanic
11:06PM 56.5021 179.4209 242° Southwest 495 570 35,000  Level FlightAware Transoceanic
11:06PM 56.4833 179.3333 242° Southwest 495 570 35,000  Level Anchorage Center
11:07PM 56.4379 179.2052 242° Southwest 495 570 35,000  Level FlightAware Transoceanic
11:08PM 56.3734 178.9902 241° Southwest 495 570 35,000  Level FlightAware Transoceanic
11:09PM 56.3085 178.7759 241° Southwest 495 570 35,000  Level FlightAware Transoceanic
11:10PM 56.2433 178.5623 241° Southwest 495 570 35,000  Level FlightAware Transoceanic
11:11PM 56.1777 178.3495 241° Southwest 495 570 35,000  Level FlightAware Transoceanic
11:12PM 56.0956 178.0669 241° Southwest 495 570 35,000  Level FlightAware Transoceanic
11:12PM 56.0667 177.9833 241° Southwest 494 568 35,000  Level Anchorage Center
11:13PM 56.0297 177.8584 240° Southwest 495 570 35,000  Level FlightAware Transoceanic
11:14PM 55.9635 177.6505 240° Southwest 495 570 35,000  Level FlightAware Transoceanic
11:15PM 55.8969 177.4433 240° Southwest 495 570 35,000  Level FlightAware Transoceanic
11:16PM 55.8300 177.2369 240° Southwest 495 570 35,000  Level FlightAware Transoceanic
11:16PM 55.7833 177.1167 239° Southwest 500 575 35,000  Level Anchorage Center
11:17PM 55.7628 177.0312 240° Southwest 495 570 35,000  Level FlightAware Transoceanic
11:18PM 55.7258 176.9254 240° Southwest 494 568 35,000  Level FlightAware Transoceanic
11:18PM 55.6333 176.7000 238° Southwest 500 575 35,000  Level Anchorage Center
11:19PM 55.6566 176.7161 240° Southwest 494 568 35,000  Level FlightAware Transoceanic
11:19PM 55.5833 176.5167 244° Southwest 490 564 35,000  Level Anchorage Center
11:20PM 55.5870 176.5075 239° Southwest 494 568 35,000  Level FlightAware Transoceanic
11:20PM 55.5000 176.2833 238° Southwest 490 564 35,000  Level Anchorage Center
11:21PM 55.5171 176.2996 239° Southwest 494 568 35,000 480 Level FlightAware Transoceanic
11:21PM 55.4500 176.1000 244° Southwest 490 564 35,500 540 Climbing Anchorage Center
11:22PM 55.3667 175.8833 236° Southwest 490 564 36,000 240 Climbing Anchorage Center
11:23PM 55.3000 175.6500 243° Southwest 490 564 36,000  Level Anchorage Center
11:24PM 55.2333 175.4833 235° Southwest 500 575 36,000  Level Anchorage Center
11:25PM 55.1500 175.2500 238° Southwest 490 564 36,000  Level Anchorage Center
11:26PM 55.0833 175.0667 238° Southwest 490 564 36,000  Level Anchorage Center
11:27PM 55.0000 174.8500 236° Southwest 500 575 36,000  Level Anchorage Center
11:28PM 54.9500 174.6833 242° Southwest 490 564 36,000  Level Anchorage Center
11:29PM 54.8667 174.4667 236° Southwest 490 564 36,000  Level Anchorage Center
11:30PM 54.7833 174.2500 236° Southwest 490 564 36,000  Level Anchorage Center
11:31PM 54.7333 174.0667 245° Southwest 490 564 36,000  Level Anchorage Center
11:32PM 54.6500 173.8667 234° Southwest 480 552 36,000  Level Anchorage Center
11:33PM 54.5833 173.6833 238° Southwest 480 552 36,000  Level Anchorage Center
11:34PM 54.5000 173.4833 234° Southwest 470 541 36,000  Level Anchorage Center
11:35PM 54.4333 173.3000 238° Southwest 480 552 36,000  Level Anchorage Center
11:36PM 54.3667 173.1000 240° Southwest 490 564 36,000  Level Anchorage Center
11:37PM 54.2833 172.9000 235° Southwest 470 541 36,000  Level Anchorage Center
11:38PM 54.2167 172.7333 236° Southwest 480 552 36,000  Level Anchorage Center
11:39PM 54.1333 172.5167 237° Southwest 500 575 36,000  Level Anchorage Center
11:40PM 54.0667 172.3500 236° Southwest 480 552 36,000  Level Anchorage Center
11:41PM 53.9833 172.1667 232° Southwest 480 552 36,000  Level Anchorage Center
11:42PM 53.9167 172.0000 236° Southwest 480 552 36,000  Level Anchorage Center
11:43PM 53.8333 171.8000 235° Southwest 480 552 36,000  Level Anchorage Center
11:44PM 53.7667 171.6333 236° Southwest 490 564 36,000  Level Anchorage Center
11:45PM 53.6833 171.4500 233° Southwest 480 552 36,000  Level Anchorage Center
11:46PM 53.6000 171.2500 235° Southwest 470 541 36,000  Level Anchorage Center
11:47PM 53.5333 171.1000 233° Southwest 450 518 36,000  Level Anchorage Center
11:48PM 53.4500 170.9167 233° Southwest 460 529 36,000  Level Anchorage Center
11:49PM 53.3833 170.7667 233° Southwest 460 529 36,000  Level Anchorage Center
11:50PM 53.3000 170.5833 233° Southwest 470 541 36,000  Level Anchorage Center
11:51PM 53.2333 170.4333 233° Southwest 460 529 36,000  Level Anchorage Center
11:52PM 53.1500 170.2500 233° Southwest 450 518 36,000  Level Anchorage Center
11:53PM 53.0667 170.0667 233° Southwest 460 529 36,000  Level Anchorage Center
11:54PM 53.0000 169.9167 234° Southwest 450 518 36,000  Level Anchorage Center
11:55PM 52.9333 169.7167 241° Southwest 470 541 36,000  Level Anchorage Center
11:56PM 52.8833 169.5667 241° Southwest 450 518 36,000  Level Anchorage Center
11:57PM 52.8167 169.3667 241° Southwest 460 529 36,000  Level Anchorage Center
11:58PM 52.7500 169.2000 237° Southwest 460 529 36,000  Level Anchorage Center
11:59PM 52.7000 169.0167 246° West 440 506 36,000  Level Anchorage Center
12:00AM 52.6333 168.8500 237° Southwest 470 541 36,000  Level Anchorage Center
12:01AM 52.5667 168.6667 239° Southwest 460 529 36,000  Level Anchorage Center
12:02AM 52.5000 168.4667 241° Southwest 450 518 36,000  Level Anchorage Center
12:03AM 52.4667 168.3167 250° West 430 495 36,000  Level Anchorage Center
12:04AM 52.3833 168.1333 233° Southwest 400 460 36,000  Level Anchorage Center
12:05AM 52.3333 167.9833 241° Southwest 440 506 36,000  Level Anchorage Center
12:06AM 52.2667 167.7833 241° Southwest 440 506 36,000  Level Anchorage Center
12:07AM 52.2000 167.6333 234° Southwest 450 518 36,000  Level Anchorage Center
12:08AM 52.1500 167.4833 242° Southwest 440 506 36,000  Level Anchorage Center
12:10AM 52.0706 167.2668 239° Southwest  Level FlightAware Approximate
12:17AM 51.6064 166.0363 239° Southwest  Level FlightAware Approximate
12:18AM 51.5390 165.8625 238° Southwest  Level FlightAware Approximate
12:19AM 51.4714 165.6893 238° Southwest  Level FlightAware Approximate
12:19AM 51.4333 165.5500 238° Southwest 449 517 36,000  Level Anchorage Center
12:20AM 51.4037 165.5164 238° Southwest  Level FlightAware Approximate
12:21AM 51.3366 165.3432 238° Southwest  Level FlightAware Approximate
12:22AM 51.2693 165.1704 238° Southwest  Level FlightAware Approximate
12:23AM 51.2017 164.9982 238° Southwest  Level FlightAware Approximate
12:24AM 51.1339 164.8265 238° Southwest  Level FlightAware Approximate
12:25AM 51.0658 164.6552 238° Southwest  Level FlightAware Approximate
12:26AM 51.0153 164.5139 237° Southwest 449 517 36,000  Level FlightAware Transoceanic
12:26AM 50.9833 164.4500 237° Southwest 422 486 36,000  Level Anchorage Center
12:27AM 50.9448 164.3431 237° Southwest 449 517 36,000  Level FlightAware Transoceanic
12:27AM 50.9500 164.3833 237° Southwest 446 513 36,000  Level Anchorage Center
12:28AM 50.8740 164.1727 237° Southwest 449 517 36,000  Level FlightAware Transoceanic
12:29AM 50.8029 164.0029 236° Southwest 449 517 36,000  Level FlightAware Transoceanic
12:30AM 50.7316 163.8336 236° Southwest 449 517 36,000  Level FlightAware Transoceanic
12:31AM 50.6601 163.6648 236° Southwest 449 517 36,000  Level FlightAware Transoceanic
12:32AM 50.5651 163.4518 236° Southwest 422 486 36,000  Level FlightAware Transoceanic
12:33AM 50.5409 163.4051 236° Southwest 446 513 36,000  Level FlightAware Transoceanic
12:34AM 50.4719 163.2437 236° Southwest 446 513 36,000  Level FlightAware Transoceanic
12:35AM 50.4027 163.0828 236° Southwest 446 513 36,000  Level FlightAware Transoceanic
12:36AM 50.3332 162.9224 236° Southwest 446 513 36,000  Level FlightAware Transoceanic
12:37AM 50.2636 162.7624 236° Southwest 446 513 36,000  Level FlightAware Transoceanic
12:38AM 50.1937 162.6029 236° Southwest 446 513 36,000  Level FlightAware Transoceanic
12:39AM 50.1237 162.4438 235° Southwest 446 513 36,000  Level FlightAware Transoceanic
12:40AM 50.0534 162.2853 235° Southwest 446 513 36,000  Level FlightAware Transoceanic
12:41AM 49.9829 162.1272 235° Southwest 446 513 36,000  Level FlightAware Transoceanic
12:42AM 49.9121 161.9695 235° Southwest 446 513 36,000  Level FlightAware Transoceanic
12:43AM 49.8412 161.8123 235° Southwest 446 513 36,000  Level FlightAware Transoceanic
12:44AM 49.7700 161.6556 235° Southwest 446 513 36,000  Level FlightAware Transoceanic
12:45AM 49.6987 161.4994 235° Southwest 446 513 36,000  Level FlightAware Transoceanic
12:46AM 49.6271 161.3436 235° Southwest 446 513 36,000  Level FlightAware Transoceanic
12:47AM 49.5553 161.1882 234° Southwest 446 513 36,000  Level FlightAware Transoceanic
12:48AM 49.4833 161.0333 234° Southwest 446 513 36,000  Level FlightAware Transoceanic
12:48AM 49.4833 161.0333 234° Southwest 447 514 36,000  Level Anchorage Center
12:49AM 49.4034 160.8625 234° Southwest 446 513 36,000  Level FlightAware Transoceanic
12:50AM 49.3232 160.6922 234° Southwest 446 513 36,000  Level FlightAware Transoceanic
12:51AM 49.2428 160.5225 234° Southwest 446 513 36,000  Level FlightAware Transoceanic
12:52AM 49.1621 160.3533 234° Southwest 446 513 36,000  Level FlightAware Transoceanic
12:53AM 49.0812 160.1847 234° Southwest 446 513 36,000  Level FlightAware Transoceanic
12:54AM 49.0696 160.1607 234° Southwest 447 514 36,000  Level FlightAware Transoceanic
12:55AM 49.0000 160.0167 233° Southwest 447 514 36,000  Level FlightAware Transoceanic
12:56AM 48.9216 159.8568 233° Southwest 447 514 36,000  Level FlightAware Transoceanic
12:57AM 48.8430 159.6975 233° Southwest 447 514 36,000  Level FlightAware Transoceanic
12:58AM 48.7643 159.5387 233° Southwest 447 514 36,000  Level FlightAware Transoceanic
12:59AM 48.6852 159.3803 233° Southwest 447 514 36,000  Level FlightAware Transoceanic
01:00AM 48.6060 159.2225 233° Southwest 447 514 36,000  Level FlightAware Transoceanic
01:01AM 48.5265 159.0652 233° Southwest 447 514 36,000  Level FlightAware Transoceanic
01:02AM 48.4469 158.9083 232° Southwest 447 514 36,000  Level FlightAware Transoceanic
01:03AM 48.3670 158.7520 232° Southwest 447 514 36,000  Level FlightAware Transoceanic
01:04AM 48.2869 158.5961 232° Southwest 447 514 36,000  Level FlightAware Transoceanic
01:05AM 48.2066 158.4407 232° Southwest 447 514 36,000  Level FlightAware Transoceanic
01:06AM 48.1261 158.2858 232° Southwest 447 514 36,000  Level FlightAware Transoceanic
01:07AM 48.0454 158.1314 232° Southwest 447 514 36,000  Level FlightAware Transoceanic
01:08AM 47.9645 157.9775 232° Southwest 447 514 36,000  Level FlightAware Transoceanic
01:09AM 47.8833 157.8241 232° Southwest 447 514 36,000  Level FlightAware Transoceanic
01:10AM 47.8020 157.6711 232° Southwest 447 514 36,000  Level FlightAware Transoceanic
01:11AM 47.7205 157.5186 231° Southwest 447 514 36,000  Level FlightAware Transoceanic
01:12AM 47.6387 157.3667 231° Southwest 447 514 36,000  Level FlightAware Transoceanic
01:13AM 47.5568 157.2151 231° Southwest 447 514 36,000  Level FlightAware Transoceanic
01:14AM 47.4747 157.0641 231° Southwest 447 514 36,000  Level FlightAware Transoceanic
01:15AM 47.3923 156.9135 231° Southwest 447 514 36,000  Level FlightAware Transoceanic
01:16AM 47.3098 156.7634 231° Southwest 447 514 36,000  Level FlightAware Transoceanic
01:17AM 47.2271 156.6137 231° Southwest 447 514 36,000  Level FlightAware Transoceanic
01:18AM 47.1442 156.4646 231° Southwest 447 514 36,000  Level FlightAware Transoceanic
01:19AM 47.0611 156.3159 231° Southwest 447 514 36,000  Level FlightAware Transoceanic
01:20AM 46.9777 156.1676 230° Southwest 447 514 36,000  Level FlightAware Transoceanic
01:21AM 46.8942 156.0198 230° Southwest 447 514 36,000  Level FlightAware Transoceanic
01:22AM 46.8106 155.8725 230° Southwest 447 514 36,000  Level FlightAware Transoceanic
01:23AM 46.7267 155.7256 230° Southwest 447 514 36,000  Level FlightAware Transoceanic
01:24AM 46.6426 155.5792 230° Southwest 447 514 36,000  Level FlightAware Transoceanic
01:25AM 46.5584 155.4333 230° Southwest 447 514 36,000  Level FlightAware Transoceanic
01:26AM 46.4740 155.2878 230° Southwest 447 514 36,000  Level FlightAware Transoceanic
01:27AM 46.3894 155.1427 230° Southwest 447 514 36,000  Level FlightAware Transoceanic
01:28AM 46.3046 154.9981 230° Southwest 447 514 36,000  Level FlightAware Transoceanic
01:29AM 46.2196 154.8540 229° Southwest 447 514 36,000  Level FlightAware Transoceanic
01:30AM 46.1344 154.7103 229° Southwest 447 514 36,000  Level FlightAware Transoceanic
01:31AM 46.0491 154.5670 229° Southwest 447 514 36,000  Level FlightAware Transoceanic
01:32AM 45.9636 154.4242 229° Southwest 447 514 36,000  Level FlightAware Transoceanic
01:33AM 45.8779 154.2818 229° Southwest 447 514 36,000  Level FlightAware Transoceanic
01:34AM 45.7920 154.1399 229° Southwest 447 514 36,000  Level FlightAware Transoceanic
01:35AM 45.7060 153.9984 229° Southwest 447 514 36,000  Level FlightAware Transoceanic
01:36AM 45.6197 153.8573 229° Southwest 447 514 36,000 60 Level FlightAware Transoceanic
01:37AM 45.5303 153.7352 224° Southwest  Level FlightAware Approximate
01:38AM 45.4405 153.6132 224° Southwest  Level FlightAware Approximate
01:39AM 45.4510 153.6114 228° Southwest  Level FlightAware Approximate
01:40AM 45.3685 153.4796 228° Southwest  Level FlightAware Approximate
01:41AM 45.2858 153.3482 228° Southwest  Level FlightAware Approximate
01:42AM 45.2031 153.2174 228° Southwest  Level FlightAware Approximate
01:43AM 45.1203 153.0870 228° Southwest  Level FlightAware Approximate
01:44AM 45.0373 152.9570 228° Southwest  Level FlightAware Approximate
01:45AM 44.9542 152.8273 228° Southwest  Level FlightAware Approximate
01:46AM 44.8709 152.6980 228° Southwest  Level FlightAware Approximate
01:47AM 44.7875 152.5691 228° Southwest  Level FlightAware Approximate
01:48AM 44.7039 152.4406 228° Southwest  Level FlightAware Approximate
01:49AM 44.6202 152.3125 227° Southwest  Level FlightAware Approximate
01:50AM 44.5363 152.1847 227° Southwest  Level FlightAware Approximate
01:51AM 44.4523 152.0572 227° Southwest  Level FlightAware Approximate
01:52AM 44.3682 151.9302 227° Southwest  Level FlightAware Approximate
01:53AM 44.2839 151.8035 227° Southwest  Level FlightAware Approximate
01:54AM 44.1995 151.6772 227° Southwest  Level FlightAware Approximate
01:55AM 44.1149 151.5512 227° Southwest  Level FlightAware Approximate
01:56AM 44.0302 151.4256 227° Southwest  Level FlightAware Approximate
01:57AM 43.9454 151.3003 227° Southwest  Level FlightAware Approximate
01:58AM 43.8604 151.1754 227° Southwest  Level FlightAware Approximate
01:59AM 43.7753 151.0509 227° Southwest  Level FlightAware Approximate
02:00AM 43.6901 150.9267 227° Southwest  Level FlightAware Approximate
02:01AM 43.6047 150.8029 226° Southwest  Level FlightAware Approximate
02:02AM 43.5192 150.6794 226° Southwest  Level FlightAware Approximate
02:03AM 43.4336 150.5563 226° Southwest  Level FlightAware Approximate
02:03AM 43.1370 150.1230 226° Southwest 465 535 38,000  Level FlightAware
02:04AM 43.3478 150.4335 226° Southwest  Level FlightAware Approximate
02:04AM 43.0820 150.0450 226° Southwest 464 534 38,000  Level FlightAware
02:05AM 43.0120 149.9460 226° Southwest 464 534 38,000  Level FlightAware
02:06AM 42.9260 149.8270 225° Southwest 457 526 38,000  Level FlightAware
02:06AM 42.8590 149.7340 226° Southwest 456 525 38,000  Level FlightAware
02:07AM 42.7880 149.6340 226° Southwest 456 525 38,000  Level FlightAware
02:08AM 42.7140 149.5330 225° Southwest 456 525 38,000  Level FlightAware
02:09AM 42.6530 149.4500 225° Southwest 457 526 38,000  Level FlightAware
02:09AM 42.6010 149.3780 226° Southwest 457 526 38,000  Level FlightAware
02:10AM 42.5100 149.2530 225° Southwest 456 525 38,000  Level FlightAware
02:11AM 42.4350 149.1500 225° Southwest 444 511 38,000  Level FlightAware
02:12AM 42.3570 149.0440 225° Southwest 444 511 38,000  Level FlightAware
02:13AM 42.2960 148.9620 225° Southwest 442 509 38,000  Level FlightAware
02:13AM 42.2310 148.8740 225° Southwest 441 507 38,000  Level FlightAware
02:14AM 42.1720 148.7930 226° Southwest 437 503 38,000  Level FlightAware
02:15AM 42.1140 148.7160 225° Southwest 434 499 38,000  Level FlightAware
02:15AM 42.0550 148.6380 224° Southwest 432 497 38,000  Level FlightAware
02:16AM 41.9920 148.5520 225° Southwest 434 499 38,000  Level FlightAware
02:17AM 41.9280 148.4680 224° Southwest 429 494 38,000  Level FlightAware
02:18AM 41.8710 148.3930 224° Southwest 420 483 38,000  Level FlightAware
02:18AM 41.8150 148.3190 225° Southwest 419 482 38,000  Level FlightAware
02:19AM 41.7610 148.2470 225° Southwest 417 480 38,000  Level FlightAware
02:20AM 41.6960 148.1620 224° Southwest 422 486 38,000  Level FlightAware
02:20AM 41.6390 148.0880 224° Southwest 421 484 38,000  Level FlightAware
02:21AM 41.5770 148.0090 224° Southwest 420 483 38,000  Level FlightAware
02:22AM 41.5180 147.9320 224° Southwest 411 473 38,000  Level FlightAware
02:23AM 41.4600 147.8590 223° Southwest 410 472 38,000  Level FlightAware
02:23AM 41.4060 147.7890 224° Southwest 410 472 38,000  Level FlightAware
02:24AM 41.3420 147.7080 224° Southwest 412 474 38,000  Level FlightAware
02:25AM 41.2870 147.6390 223° Southwest 411 473 38,000  Level FlightAware
02:25AM 41.2310 147.5660 224° Southwest 410 472 38,000  Level FlightAware
02:26AM 41.1740 147.4960 223° Southwest 409 471 38,000  Level FlightAware
02:27AM 41.1120 147.4170 224° Southwest 407 468 38,000  Level FlightAware
02:27AM 41.0550 147.3460 223° Southwest 406 467 38,000  Level FlightAware
02:28AM 40.9950 147.2690 224° Southwest 406 467 38,000  Level FlightAware
02:29AM 40.9400 147.2020 223° Southwest 406 467 38,000  Level FlightAware
02:29AM 40.8820 147.1290 224° Southwest 405 466 38,000  Level FlightAware
02:30AM 40.8200 147.0520 223° Southwest 405 466 38,000  Level FlightAware
02:31AM 40.7620 146.9800 223° Southwest 403 464 38,000  Level FlightAware
02:32AM 40.6900 146.8890 224° Southwest 403 464 38,000  Level FlightAware
02:33AM 40.6540 146.8450 223° Southwest 403 464 38,000  Level FlightAware
02:33AM 40.5810 146.7550 223° Southwest 396 456 38,000  Level FlightAware
02:34AM 40.5130 146.6720 223° Southwest 396 456 38,000  Level FlightAware
02:35AM 40.4420 146.5850 223° Southwest 381 438 38,000  Level FlightAware
02:36AM 40.3880 146.5190 223° Southwest 379 436 38,000 -480 Level FlightAware
02:36AM 40.3390 146.4590 223° Southwest 379 436 37,400 -1,140 Descending FlightAware
02:37AM 40.2850 146.3940 223° Southwest 378 435 36,500 -660 Descending FlightAware
02:38AM 40.2310 146.3290 223° Southwest 378 435 36,500 -1,020 Level FlightAware
02:38AM 40.1760 146.2640 222° Southwest 392 451 35,000 -1,140 Descending FlightAware
02:39AM 40.1330 146.2120 223° Southwest 392 451 35,000  Level FlightAware
02:40AM 40.0720 146.1410 222° Southwest 392 451 35,000  Level FlightAware
02:41AM 40.0170 146.0760 222° Southwest 392 451 35,000  Level FlightAware
02:41AM 39.9750 146.0260 222° Southwest 392 451 35,000  Level FlightAware
02:42AM 39.9180 145.9590 222° Southwest 392 451 35,000  Level FlightAware
02:43AM 39.8760 145.9110 221° Southwest 392 451 35,000  Level FlightAware
02:44AM 39.8210 145.8460 222° Southwest 392 451 35,000  Level FlightAware
02:44AM 39.7780 145.7950 222° Southwest 392 451 35,000  Level FlightAware
02:45AM 39.7340 145.7440 222° Southwest 392 451 35,000  Level FlightAware
02:46AM 39.6790 145.6800 222° Southwest 392 451 35,000  Level FlightAware
02:46AM 39.6360 145.6290 222° Southwest 392 451 35,000  Level FlightAware
02:47AM 39.5830 145.5670 222° Southwest 392 451 35,000  Level FlightAware
02:48AM 39.5420 145.5190 222° Southwest 392 451 35,000 -60 Level FlightAware
02:50AM 39.3728 145.3185 223° Southwest  Level FlightAware Approximate
02:51AM 39.2811 145.2105 222° Southwest  Level FlightAware Approximate
02:52AM 39.1894 145.1028 222° Southwest  Level FlightAware Approximate
02:53AM 39.0976 144.9954 222° Southwest  Level FlightAware Approximate
02:54AM 39.0057 144.8883 222° Southwest  Level FlightAware Approximate
02:55AM 38.9137 144.7814 222° Southwest  Level FlightAware Approximate
02:56AM 38.8215 144.6749 222° Southwest  Level FlightAware Approximate
02:57AM 38.7289 144.5692 222° Southwest  Level FlightAware Approximate
02:58AM 38.6360 144.4639 222° Southwest  Level FlightAware Approximate
02:59AM 38.5430 144.3590 221° Southwest  Level FlightAware Approximate
03:00AM 38.4500 144.2543 221° Southwest  Level FlightAware Approximate
03:01AM 38.3568 144.1499 221° Southwest  Level FlightAware Approximate
03:02AM 38.2636 144.0457 221° Southwest  Level FlightAware Approximate
03:03AM 38.1703 143.9419 221° Southwest  Level FlightAware Approximate
03:04AM 38.0769 143.8383 221° Southwest  Level FlightAware Approximate
03:05AM 37.9833 143.7349 221° Southwest  Level FlightAware Approximate
03:05AM 37.8150 143.5380 221° Southwest 418 481 34,000  Level FlightAware
03:06AM 37.8898 143.6318 221° Southwest  Level FlightAware Approximate
03:06AM 37.7590 143.4780 220° Southwest 418 481 34,000  Level FlightAware
03:07AM 37.7150 143.4290 221° Southwest 418 481 34,000  Level FlightAware
03:08AM 37.5830 143.2810 222° Southwest 430 495 34,000  Level FlightAware
03:09AM 37.5270 143.2440 208° Southwest 437 503 34,000  Level FlightAware
03:09AM 37.4430 143.1880 208° Southwest 434 499 34,000  Level FlightAware
03:10AM 37.3630 143.1280 211° Southwest 432 497 34,000  Level FlightAware
03:11AM 37.2970 143.0790 211° Southwest 431 496 34,000  Level FlightAware
03:12AM 37.2180 143.0260 208° Southwest 432 497 34,000  Level FlightAware
03:12AM 37.1360 142.9700 209° Southwest 434 499 34,000  Level FlightAware
03:13AM 37.0650 142.9220 208° Southwest 434 499 34,000  Level FlightAware
03:14AM 36.9910 142.8720 208° Southwest 434 499 34,000  Level FlightAware
03:15AM 36.9190 142.8220 209° Southwest 434 499 34,000  Level FlightAware
03:16AM 36.7520 142.7110 208° Southwest 34,000  Level FlightAware
03:17AM 36.6770 142.6610 208° Southwest 34,000  Level FlightAware
03:17AM 36.5970 142.6090 208° Southwest 431 496 34,000  Level FlightAware
03:18AM 36.5380 142.5690 209° Southwest 431 496 34,000  Level FlightAware
03:19AM 36.4680 142.5220 208° Southwest 429 494 34,000  Level FlightAware
03:19AM 36.3780 142.4630 208° Southwest 429 494 34,000  Level FlightAware
03:20AM 36.3200 142.4250 208° Southwest 429 494 34,000  Level FlightAware
03:21AM 36.2100 142.3310 215° Southwest 418 481 34,000 -120 Level FlightAware
03:22AM 36.1650 142.2880 218° Southwest 423 487 33,900 -2,220 Descending FlightAware
03:23AM 36.0090 142.1510 254° West 409 471 29,200 -2,700 Descending FlightAware
03:24AM 36.0174 142.0986 254° West  Level FlightAware Approximate
03:24AM 35.9370 142.0870 216° Southwest 427 491 27,500  Level FlightAware
03:25AM 35.8710 141.9880 231° Southwest 424 488 25,800 -1,620 Descending FlightAware
03:26AM 35.8580 141.8360 264° West 445 512 24,600 -960 Descending FlightAware
03:27AM 35.8580 141.7220 270° West 443 510 24,200 -1,440 Descending FlightAware
03:28AM 35.8570 141.5870 270° West 434 499 22,200 -2,760 Descending FlightAware
03:28AM 35.8560 141.4960 269° West 430 495 20,000 -3,420 Descending FlightAware
03:29AM 35.8550 141.4150 269° West 428 493 18,100 -3,540 Descending FlightAware
03:30AM 35.8540 141.2880 269° West 416 479 15,100 -3,540 Descending FlightAware
03:30AM 35.8530 141.1970 269° West 409 471 12,900 -3,240 Descending FlightAware
03:31AM 35.8520 141.1040 269° West 402 463 10,800 -1,920 Descending FlightAware
03:32AM 35.8670 141.0020 280° West 366 421 10,200 -540 Descending FlightAware
03:32AM 35.8810 140.9320 284° West 324 373 10,100 -360 Descending FlightAware
03:33AM 35.8920 140.8750 283° West 298 343 9,800 -720 Descending FlightAware
03:33AM 35.8990 140.8400 284° West 286 329 9,500 -1,140 Descending FlightAware
03:34AM 35.9100 140.7900 285° West 282 325 8,800 -1,500 Descending FlightAware
03:34AM 35.9200 140.7410 284° West 282 325 8,000 -1,440 Descending FlightAware
03:35AM 35.9260 140.7120 284° West 282 325 7,600 -1,380 Descending FlightAware
03:35AM 35.9350 140.6670 284° West 280 322 6,900 -1,440 Descending FlightAware
03:36AM 35.9470 140.6110 285° West 277 319 6,100 -1,020 Descending FlightAware
03:36AM 35.9550 140.5750 285° West 263 303 5,900 -180 Descending FlightAware
03:37AM 35.9620 140.5410 284° West 240 276 6,000 -120 Climbing FlightAware
03:37AM 35.9710 140.5000 285° West 234 269 5,800 -840 Descending FlightAware
03:38AM 35.9790 140.4620 285° West 233 268 5,200 -1,200 Descending FlightAware
03:38AM 35.9850 140.4290 283° West 229 264 4,700 -1,200 Descending FlightAware
03:38AM 35.9890 140.4090 284° West 226 260 4,400 -960 Descending FlightAware
03:39AM 35.9880 140.3600 269° West 3,700 -960 Descending FlightAware
03:40AM 35.9740 140.3090 251° West 199 229 3,100 -900 Descending FlightAware
03:40AM 35.9670 140.2930 242° Southwest 191 220 2,900 -180 Descending FlightAware
03:40AM 35.9620 140.2780 248° West 193 222 3,000 -180 Climbing FlightAware
03:41AM 35.9460 140.2550 229° Southwest 187 215 2,800 -420 Descending FlightAware
03:41AM 35.9370 140.2530 190° South 191 220 2,800  Level FlightAware
03:41AM 35.9180 140.2650 153° Southeast 198 228 2,800 -240 Level FlightAware
03:42AM 35.8890 140.2850 151° Southeast 192 221 2,600 -600 Descending FlightAware
03:42AM 35.8700 140.2990 149° Southeast 189 217 2,200 -600 Descending FlightAware
03:43AM 35.8450 140.3160 151° Southeast 171 197 2,100 -960 Descending FlightAware
03:43AM 35.8210 140.3350 147° Southeast 144 166 1,100 -1,140 Descending FlightAware
03:44AM 35.7960 140.3530 150° Southeast 144 166 600 -720 Descending FlightAware
03:44AM 35.7920 140.3560 149° Southeast 146 168 500 -180 Descending FlightAware
03:45AM 35.7780 140.3650 152° Southeast 146 168 500  Level FlightAware
03:47AM 35.7647 140.3864 253° West  Level Estimated
03:48AM 35.7647 140.3864 253° West  Level Estimated
03:49AM 35.7647 140.3864 253° West  Level Estimated